Flight Track Log - Related Links

Times and Time Zones

All times are in EDT time to prevent confusion due to time zone crossing. See the N244A flight status page for this flight to view local times or setup timezone preferences in your user account.

Time Position Orientation Groundspeed Altitude Reporting Facility
EDT Latitude Longitude Course Direction KTS MPH feet Rate Location/Type
Wed 06:01:42 PM 34.8078 -82.2400 181° South 256 295 4,600  Level Atlanta Center
Wed 06:02:42 PM 34.8025 -82.1517 94° East 268 308 7,500 3,000 Climbing Atlanta Center
Wed 06:03:42 PM 34.8639 -82.0819 43° Northeast 242 278 10,600 2,650 Climbing Atlanta Center
Wed 06:04:42 PM 34.9531 -82.0444 19° North 277 319 12,800 1,150 Climbing Atlanta Center
Wed 06:05:42 PM 35.0656 -82.0342 North 341 392 12,900 150 Climbing Atlanta Center
Wed 06:06:00 PM 35.2237 -81.9333 North  Level FlightAware Approximate
Wed 06:06:42 PM 35.1883 -82.0133 North 413 475 13,100  Level Atlanta Center
Wed 06:07:42 PM 35.3111 -81.9900 North 440 506 13,100 -50 Level Atlanta Center
Wed 06:08:42 PM 35.4250 -81.9464 17° North 435 501 13,000 -50 Descending Atlanta Center
Wed 06:09:42 PM 35.5425 -81.8667 29° Northeast 435 501 13,000  Level Atlanta Center
Wed 06:10:42 PM 35.6564 -81.8153 20° North 430 495 13,000 50 Level Atlanta Center
Wed 06:11:42 PM 35.7733 -81.8247 356° North 425 489 13,100  Climbing Atlanta Center
Wed 06:12:42 PM 35.8636 -81.7378 38° Northeast 397 457 13,000  Descending Atlanta Center
Wed 06:13:42 PM 35.8925 -81.6089 74° East 347 399 13,100  Climbing Atlanta Center
Wed 06:14:42 PM 35.9128 -81.4800 79° East 366 421 13,000 -100 Descending Atlanta Center
Wed 06:15:42 PM 35.9372 -81.3611 76° East 380 437 12,900 -50 Descending Atlanta Center
Wed 06:16:42 PM 35.9594 -81.2272 78° East 386 444 12,900  Level Atlanta Center
Wed 06:17:42 PM 35.9814 -81.0956 78° East 391 450 12,900 -400 Level Atlanta Center
Wed 06:18:42 PM 36.0072 -80.9636 76° East 391 450 12,100 -1,250 Descending Atlanta Center
Wed 06:19:42 PM 36.0269 -80.8319 79° East 372 428 10,400 -1,600 Descending Atlanta Center
Wed 06:20:42 PM 36.0158 -80.7297 98° East 314 361 8,900 -750 Descending Atlanta Center
Wed 06:21:42 PM 36.0297 -80.6342 80° East 287 330 8,900 -150 Level Atlanta Center
Wed 06:22:42 PM 36.0581 -80.5275 72° East 299 344 8,600 -1,150 Descending Atlanta Center
Wed 06:23:42 PM 36.0825 -80.4342 72° East 312 359 6,600 -2,300 Descending Atlanta Center
Wed 06:24:42 PM 36.1047 -80.3356 74° East 307 353 4,000 -2,350 Descending Atlanta Center
Wed 06:25:42 PM 36.1267 -80.2367 75° East 302 348 1,900 -1,350 Descending Atlanta Center
Wed 06:26:42 PM 36.0936 -80.1817 127° Southeast 194 223 1,300 -400 Descending Atlanta Center
Wed 06:27:42 PM 36.1172 -80.2011 326° Northwest 43 49 1,100 -200 Descending Atlanta Center
Wed 06:29:00 PM 36.1333 -80.2167 321° Northwest  Level FlightAware Approximate

Login

Don't have an account? Register now (free) for customized features, flight alerts, and more!